CYUL/YUL METAR and TAF weather

Enter ICAO airport designator
Station Type Date Time Source
CYUL METAR 2018/10/21 06:00 UTC NOAA

CYUL 210600Z 28010KT 15SM BKN033 04/M02 A2972 RMK SC7 SLP066


Station Type Date Time Source
CYUL Decoded METAR 2018/10/21 06:00 UTC NOAA

Montreal / Pierre Elliot Trudeau International Airport, Que, Canada (CYUL) 45-28N 073-45W 36M
Oct 21, 2018 - 02:00 AM EDT / 2018.10.21 0600 UTC
Wind: from the W (280 degrees) at 12 MPH (10 KT):0
Visibility: 15 mile(s):0
Sky conditions: mostly cloudy
Temperature: 39 F (4 C)
Dew Point: 28 F (-2 C)
Relative Humidity: 64%
Pressure (altimeter): 29.72 in. Hg (1006 hPa)
ob: CYUL 210600Z 28010KT 15SM BKN033 04/M02 A2972 RMK SC7 SLP066
cycle: 6

Station Type Date Time Source
CYUL TAF 2018/10/21 06:45 UTC NOAA

TAF CYUL 210540Z 2106/2206 27005KT P6SM SCT030
TEMPO 2106/2112 BKN030
BECMG 2110/2112 30010G20KT
FM211600 28015G25KT P6SM BKN040
BECMG 2123/2201 28012G22KT
FM220300 28012G22KT P6SM SCT040 SCT160
RMK NXT FCST BY 210900Z


Example: see airport list